SALMON FALLS @ MILTON: From 05/20/2020 09:00 to 06/03/2020 22:00

Date STAGE [FT] FLOW [CFS] LAKE ELEVATION [FT] PRECIPITATION INCREMENT [IN] AIR TEMPERATURE [DEGF]
06/03/2020 16:00 2.82 -- 413.50 0.00 70.4
06/03/2020 15:00 2.83 -- 413.51 0.00 69.1
06/03/2020 14:00 2.83 56.2 413.50 0.00 69.0
06/03/2020 13:00 2.83 56.2 413.50 0.00 67.8
06/03/2020 12:00 2.83 56.2 413.51 0.00 66.8
06/03/2020 11:00 2.83 56.2 413.50 0.00 65.8
06/03/2020 10:00 2.83 56.2 413.50 0.00 61.7
06/03/2020 09:00 2.83 56.2 413.50 0.00 58.0
06/03/2020 08:00 2.83 56.2 413.51 0.00 55.0
06/03/2020 07:00 2.83 56.2 413.50 0.00 54.1
06/03/2020 06:00 2.82 54.8 413.49 0.00 53.7
06/03/2020 05:00 2.83 56.2 413.51 0.00 54.1
06/03/2020 04:00 2.82 54.8 413.50 0.00 54.3
06/03/2020 03:00 2.82 54.8 413.49 0.00 53.8
06/03/2020 02:00 2.82 54.8 413.50 0.00 54.6
06/03/2020 01:00 2.83 56.2 413.50 0.00 54.9
06/03/2020 00:00 2.82 54.8 413.50 0.00 55.4
06/02/2020 23:00 2.82 54.8 413.50 0.00 55.1
06/02/2020 22:00 2.82 54.8 413.50 0.00 56.1
06/02/2020 21:00 2.82 54.8 413.49 0.00 58.3
06/02/2020 20:00 2.82 54.8 413.49 0.00 60.7
06/02/2020 19:00 2.82 54.8 413.49 0.00 62.0
06/02/2020 18:00 2.82 54.8 413.48 0.00 64.6
06/02/2020 17:00 2.82 54.8 413.51 0.00 65.0
06/02/2020 16:00 2.82 54.8 413.51 0.00 64.2
06/02/2020 15:00 2.82 54.8 413.51 0.00 62.7
06/02/2020 14:00 2.82 54.8 413.51 0.00 60.9
06/02/2020 13:00 2.82 54.8 413.49 0.00 61.1
06/02/2020 12:00 2.83 56.2 413.51 0.00 58.4
06/02/2020 11:00 2.82 54.8 413.51 0.00 55.7
06/02/2020 10:00 2.83 56.2 413.52 0.00 54.1
06/02/2020 09:00 2.82 54.8 413.50 0.00 51.2
06/02/2020 08:00 2.83 56.2 413.52 0.00 46.3
06/02/2020 07:00 2.83 56.2 413.50 0.00 42.5
06/02/2020 06:00 2.83 56.2 413.49 0.00 42.2
06/02/2020 05:00 2.82 54.8 413.50 0.00 42.7
06/02/2020 04:00 2.83 56.2 413.50 0.00 44.2
06/02/2020 03:00 2.82 54.8 413.50 0.00 45.3
06/02/2020 02:00 2.83 56.2 413.51 0.00 47.8
06/02/2020 01:00 2.83 56.2 413.50 0.00 48.8
06/02/2020 00:00 2.83 56.2 413.51 0.00 50.6
06/01/2020 23:00 2.82 54.8 413.50 0.00 52.1
06/01/2020 22:00 2.82 54.8 413.53 0.00 53.1
06/01/2020 21:00 2.82 54.8 413.50 0.00 55.7
06/01/2020 20:00 2.83 56.2 413.51 0.00 58.0
06/01/2020 19:00 2.82 54.8 413.49 0.00 58.5
06/01/2020 18:00 2.83 56.2 413.52 0.00 59.7
06/01/2020 17:00 2.83 56.2 413.51 0.00 59.5
06/01/2020 16:00 2.83 56.2 413.54 0.00 58.5
06/01/2020 15:00 2.83 56.2 413.51 0.00 59.6
06/01/2020 14:00 2.83 56.2 413.47 0.00 56.1
06/01/2020 13:00 2.84 57.7 413.51 0.00 56.0
06/01/2020 12:00 2.82 54.8 413.49 0.00 54.4
06/01/2020 11:00 2.83 56.2 413.49 0.00 52.8
06/01/2020 10:00 2.84 57.7 413.51 0.00 51.3
06/01/2020 09:00 2.83 56.2 413.51 0.00 49.2
06/01/2020 08:00 2.83 56.2 413.50 0.00 45.9
06/01/2020 07:00 2.82 54.8 413.50 0.00 42.1
06/01/2020 06:00 2.83 56.2 413.50 0.00 42.4
06/01/2020 05:00 2.83 56.2 413.50 0.00 38.9
06/01/2020 04:00 2.82 54.8 413.50 0.00 38.3
06/01/2020 03:00 2.83 56.2 413.49 0.00 41.0
06/01/2020 02:00 2.82 54.8 413.50 0.00 39.6
06/01/2020 01:00 2.82 54.8 413.50 0.00 42.0
06/01/2020 00:00 2.82 54.8 413.49 0.00 43.9
05/31/2020 23:00 2.83 56.2 413.51 0.00 45.5
05/31/2020 22:00 2.82 54.8 413.49 0.00 48.6
05/31/2020 21:00 2.83 56.2 413.52 0.00 51.1
05/31/2020 20:00 2.82 54.8 413.50 0.00 53.5
05/31/2020 19:00 2.84 57.7 413.52 0.00 55.6
05/31/2020 18:00 2.84 57.7 413.50 0.00 56.2
05/31/2020 17:00 2.83 56.2 413.48 0.00 56.8
05/31/2020 16:00 2.85 59.2 413.53 0.00 57.6
05/31/2020 15:00 2.85 59.2 413.57 0.00 56.9
05/31/2020 14:00 2.83 56.2 413.50 0.00 57.5
05/31/2020 13:00 2.84 57.7 413.49 0.00 56.7
05/31/2020 12:00 2.85 59.2 413.50 0.00 55.2
05/31/2020 11:00 2.83 56.2 413.51 0.00 55.5
05/31/2020 10:00 2.84 57.7 413.51 0.00 53.8
05/31/2020 09:00 2.85 59.2 413.54 0.00 54.6
05/31/2020 08:00 2.85 59.2 413.50 0.00 54.5
05/31/2020 07:00 2.84 57.7 413.50 0.00 53.8
05/31/2020 06:00 2.85 59.2 413.51 0.00 56.4
05/31/2020 05:00 2.84 57.7 413.49 0.00 58.4
05/31/2020 04:00 2.84 57.7 413.50 0.00 61.4
05/31/2020 03:00 2.84 57.7 413.52 0.00 62.4
05/31/2020 02:00 2.84 57.7 413.50 0.00 63.9
05/31/2020 01:00 2.84 57.7 413.52 0.00 64.7
05/31/2020 00:00 2.84 57.7 413.51 0.00 59.2
05/30/2020 23:00 2.84 57.7 413.51 0.00 60.5
05/30/2020 22:00 2.84 57.7 413.50 0.00 62.6
05/30/2020 21:00 2.84 57.7 413.51 0.00 66.3
05/30/2020 20:00 2.84 57.7 413.50 0.00 70.3
05/30/2020 19:00 2.85 59.2 413.53 0.00 72.5
05/30/2020 18:00 2.84 57.7 413.53 0.00 73.8
05/30/2020 17:00 2.84 57.7 413.56 0.00 74.1
05/30/2020 16:00 2.85 59.2 413.52 0.00 74.7
05/30/2020 15:00 2.84 57.7 413.49 0.00 73.5
05/30/2020 14:00 2.85 59.2 413.56 0.00 74.0
05/30/2020 13:00 2.85 59.2 413.49 0.00 73.8
05/30/2020 12:00 2.85 59.2 413.50 0.00 73.3
05/30/2020 11:00 2.84 57.7 413.52 0.00 73.0
05/30/2020 10:00 2.84 57.7 413.49 0.00 72.6
05/30/2020 09:00 2.84 57.7 413.50 0.00 70.1
05/30/2020 08:00 2.84 57.7 413.48 0.00 69.4
05/30/2020 07:00 2.84 57.7 413.49 0.00 68.2
05/30/2020 06:00 2.83 56.2 413.48 0.00 68.5
05/30/2020 05:00 2.84 57.7 413.48 0.00 69.3
05/30/2020 04:00 2.83 56.2 413.48 0.00 70.2
05/30/2020 03:00 2.83 56.2 413.49 0.00 70.9
05/30/2020 02:00 2.83 56.2 413.48 0.00 71.9
05/30/2020 01:00 2.83 56.2 413.49 0.00 72.7
05/30/2020 00:00 2.83 56.2 413.50 0.00 73.4
05/29/2020 23:00 2.83 56.2 413.48 0.00 73.8
05/29/2020 22:00 2.82 54.8 413.46 0.00 74.9
05/29/2020 21:00 2.82 54.8 413.45 0.00 77.1
05/29/2020 20:00 2.82 54.8 413.47 0.00 79.4
05/29/2020 19:00 2.81 53.4 413.45 0.00 81.4
05/29/2020 18:00 2.82 54.8 413.47 0.00 82.6
05/29/2020 17:00 2.82 54.8 413.47 0.00 84.5
05/29/2020 16:00 2.82 54.8 413.48 0.00 84.3
05/29/2020 15:00 2.84 57.7 413.45 0.00 83.6
05/29/2020 14:00 2.85 59.2 413.47 0.00 81.4
05/29/2020 13:00 2.85 59.2 413.49 0.00 80.8
05/29/2020 12:00 2.96 77.4 413.46 0.00 77.7
05/29/2020 11:00 2.96 77.4 413.46 0.00 76.4
05/29/2020 10:00 2.97 79.2 413.47 0.00 74.8
05/29/2020 09:00 2.96 77.4 413.46 0.00 72.5
05/29/2020 08:00 2.97 79.2 413.47 0.00 70.7
05/29/2020 07:00 2.97 79.2 413.45 0.00 69.9
05/29/2020 06:00 2.97 79.2 413.47 0.00 69.8
05/29/2020 05:00 2.96 77.4 413.46 0.00 70.2
05/29/2020 04:00 2.96 77.4 413.46 0.00 70.5
05/29/2020 03:00 2.96 77.4 413.46 0.00 70.4
05/29/2020 02:00 2.96 77.4 413.44 0.00 70.7
05/29/2020 01:00 2.97 79.2 413.45 0.00 70.7
05/29/2020 00:00 2.96 77.4 413.47 0.00 70.8
05/28/2020 23:00 2.97 79.2 413.47 0.00 70.4
05/28/2020 22:00 2.96 77.4 413.44 0.00 71.6
05/28/2020 21:00 2.96 77.4 413.46 0.00 73.8
05/28/2020 20:00 2.95 75.6 413.46 0.00 76.4
05/28/2020 19:00 2.96 77.4 413.43 0.00 79.4
05/28/2020 18:00 2.96 77.4 413.44 0.00 80.4
05/28/2020 17:00 2.95 75.6 413.44 0.00 81.3
05/28/2020 16:00 2.96 77.4 413.44 0.00 80.8
05/28/2020 15:00 2.95 75.6 413.44 0.00 81.8
05/28/2020 14:00 2.96 77.4 413.44 0.00 80.8
05/28/2020 13:00 2.96 77.4 413.45 0.00 80.5
05/28/2020 12:00 2.95 75.6 413.44 0.00 78.2
05/28/2020 11:00 2.96 77.4 413.45 0.00 75.9
05/28/2020 10:00 2.95 75.6 413.45 0.00 72.6
05/28/2020 09:00 2.96 77.4 413.44 0.00 68.6
05/28/2020 08:00 2.96 77.4 413.46 0.00 64.6
05/28/2020 07:00 2.96 77.4 413.45 0.00 62.7
05/28/2020 06:00 2.96 77.4 413.46 0.00 62.8
05/28/2020 05:00 2.95 75.6 413.44 0.00 63.1
05/28/2020 04:00 2.95 75.6 413.45 0.00 63.9
05/28/2020 03:00 2.95 75.6 413.45 0.00 64.3
05/28/2020 02:00 2.95 75.6 413.45 0.00 65.3
05/28/2020 01:00 2.95 75.6 413.45 0.00 66.9
05/28/2020 00:00 2.95 75.6 413.45 0.00 68.9
05/27/2020 23:00 2.95 75.6 413.45 0.00 69.8
05/27/2020 22:00 2.95 75.6 413.45 0.00 71.7
05/27/2020 21:00 2.95 75.6 413.45 0.00 77.0
05/27/2020 20:00 2.95 75.6 413.45 0.00 82.2
05/27/2020 19:00 2.95 75.6 413.44 0.00 83.5
05/27/2020 18:00 2.95 75.6 413.41 0.00 86.5
05/27/2020 17:00 2.95 75.6 413.44 0.00 87.9
05/27/2020 16:00 2.95 75.6 413.43 0.00 88.4
05/27/2020 15:00 2.96 77.4 413.43 0.00 87.3
05/27/2020 14:00 2.95 75.6 413.42 0.00 86.0
05/27/2020 13:00 2.96 77.4 413.43 0.00 84.8
05/27/2020 12:00 3.19 127.4 413.43 0.00 82.3
05/27/2020 11:00 3.19 127.4 413.43 0.00 78.4
05/27/2020 10:00 3.19 127.4 413.44 0.00 74.1
05/27/2020 09:00 3.19 127.4 413.44 0.00 68.4
05/27/2020 08:00 3.19 127.4 413.44 0.00 63.3
05/27/2020 07:00 3.19 127.4 413.45 0.00 57.7
05/27/2020 06:00 3.20 130.0 413.45 0.00 57.6
05/27/2020 05:00 3.19 127.4 413.44 0.00 58.6
05/27/2020 04:00 3.20 130.0 413.44 0.00 58.9
05/27/2020 03:00 3.20 130.0 413.45 0.00 59.8
05/27/2020 02:00 3.20 130.0 413.45 0.00 60.0
05/27/2020 01:00 3.20 130.0 413.45 0.00 60.4
05/27/2020 00:00 3.20 130.0 413.46 0.00 61.6
05/26/2020 23:00 3.19 127.4 413.45 0.00 63.0
05/26/2020 22:00 3.20 130.0 413.46 0.00 65.3
05/26/2020 21:00 3.20 130.0 413.44 0.00 68.1
05/26/2020 20:00 3.20 130.0 413.45 0.00 72.4
05/26/2020 19:00 3.20 130.0 413.44 0.00 75.2
05/26/2020 18:00 3.20 130.0 413.44 0.00 77.5
05/26/2020 17:00 3.20 130.0 413.46 0.00 80.6
05/26/2020 16:00 3.21 132.6 413.46 0.00 79.5
05/26/2020 15:00 3.20 130.0 413.45 0.00 78.0
05/26/2020 14:00 3.20 130.0 413.47 0.00 76.1
05/26/2020 13:00 3.20 130.0 413.45 0.00 72.9
05/26/2020 12:00 3.20 130.0 413.47 0.00 70.9
05/26/2020 11:00 3.21 132.6 413.46 0.00 68.5
05/26/2020 10:00 3.21 132.6 413.47 0.00 64.7
05/26/2020 09:00 3.21 132.6 413.47 0.00 58.4
05/26/2020 08:00 3.21 132.6 413.48 0.00 54.3
05/26/2020 07:00 3.21 132.6 413.48 0.00 53.6
05/26/2020 06:00 3.21 132.6 413.47 0.00 53.1
05/26/2020 05:00 3.21 132.6 413.49 0.00 53.7
05/26/2020 04:00 3.21 132.6 413.48 0.00 54.4
05/26/2020 03:00 3.21 132.6 413.48 0.00 53.9
05/26/2020 02:00 3.21 132.6 413.48 0.00 54.8
05/26/2020 01:00 3.21 132.6 413.49 0.00 54.5
05/26/2020 00:00 3.21 132.6 413.48 0.00 54.7
05/25/2020 23:00 3.21 132.6 413.49 0.00 55.9
05/25/2020 22:00 3.22 135.3 413.48 0.00 57.3
05/25/2020 21:00 3.21 132.6 413.48 0.00 58.2
05/25/2020 20:00 3.21 132.6 413.49 0.00 59.5
05/25/2020 19:00 3.21 132.6 413.48 0.00 60.0
05/25/2020 18:00 3.21 132.6 413.49 0.00 60.0
05/25/2020 17:00 3.21 132.6 413.49 0.00 59.9
05/25/2020 16:00 3.21 132.6 413.49 0.00 60.1
05/25/2020 15:00 3.21 132.6 413.49 0.00 60.4
05/25/2020 14:00 3.21 132.6 413.50 0.00 59.6
05/25/2020 13:00 3.22 135.3 413.50 0.00 59.7
05/25/2020 12:00 3.21 132.6 413.49 0.00 55.0
05/25/2020 11:00 3.21 132.6 413.49 0.00 53.1
05/25/2020 10:00 3.22 135.3 413.48 0.00 49.8
05/25/2020 09:00 3.22 135.3 413.51 0.00 48.9
05/25/2020 08:00 3.22 135.3 413.51 0.00 47.2
05/25/2020 07:00 3.22 135.3 413.51 0.00 45.8
05/25/2020 06:00 3.22 135.3 413.52 0.00 44.8
05/25/2020 05:00 3.22 135.3 413.52 0.00 44.9
05/25/2020 04:00 3.22 135.3 413.51 0.00 43.3
05/25/2020 03:00 3.22 135.3 413.52 0.00 43.0
05/25/2020 02:00 3.22 135.3 413.51 0.00 44.1
05/25/2020 01:00 3.22 135.3 413.53 0.00 44.2
05/25/2020 00:00 3.22 135.3 413.52 0.00 44.4
05/24/2020 23:00 3.23 138.0 413.53 0.00 45.9
05/24/2020 22:00 3.22 135.3 413.52 0.00 48.4
05/24/2020 21:00 3.22 135.3 413.52 0.00 52.0
05/24/2020 20:00 3.22 135.3 413.54 0.00 54.2
05/24/2020 19:00 3.22 135.3 413.51 0.00 56.5
05/24/2020 18:00 3.22 135.3 413.53 0.00 59.2
05/24/2020 17:00 3.22 135.3 413.52 0.00 60.3
05/24/2020 16:00 3.23 138.0 413.54 0.00 61.5
05/24/2020 15:00 3.22 135.3 413.52 0.00 61.4
05/24/2020 14:00 3.22 135.3 413.53 0.00 60.6
05/24/2020 13:00 3.22 135.3 413.55 0.00 60.0
05/24/2020 12:00 3.23 138.0 413.54 0.00 57.8
05/24/2020 11:00 3.23 138.0 413.55 0.00 55.0
05/24/2020 10:00 3.23 138.0 413.55 0.00 53.4
05/24/2020 09:00 3.23 138.0 413.54 0.00 48.8
05/24/2020 08:00 3.23 138.0 413.55 0.00 44.9
05/24/2020 07:00 3.23 138.0 413.56 0.00 41.3
05/24/2020 06:00 3.23 138.0 413.56 0.00 40.1
05/24/2020 05:00 3.24 140.7 413.55 0.00 41.5
05/24/2020 04:00 3.23 138.0 413.56 0.00 42.3
05/24/2020 03:00 3.23 138.0 413.56 0.00 43.1
05/24/2020 02:00 3.23 138.0 413.57 0.00 44.2
05/24/2020 01:00 3.24 140.7 413.57 0.00 45.4
05/24/2020 00:00 3.23 138.0 413.56 0.00 45.6
05/23/2020 23:00 3.23 138.0 413.57 0.00 46.6
05/23/2020 22:00 3.23 138.0 413.57 0.00 48.4
05/23/2020 21:00 3.23 138.0 413.56 0.00 50.7
05/23/2020 20:00 3.23 138.0 413.56 0.00 52.5
05/23/2020 19:00 3.23 138.0 413.58 0.00 56.7
05/23/2020 18:00 3.23 138.0 413.56 0.00 58.1
05/23/2020 17:00 3.23 138.0 413.57 0.00 59.5
05/23/2020 16:00 3.24 140.7 413.57 0.00 61.3
05/23/2020 15:00 3.24 140.7 413.57 0.00 61.8
05/23/2020 14:00 3.25 143.5 413.58 0.00 64.9
05/23/2020 13:00 3.24 140.7 413.56 0.00 69.0
05/23/2020 12:00 3.36 176.7 413.57 0.00 67.8
05/23/2020 11:00 3.36 176.7 413.58 0.00 65.8
05/23/2020 10:00 3.36 176.7 413.60 0.00 64.2
05/23/2020 09:00 3.37 180.0 413.61 0.00 63.6
05/23/2020 08:00 3.36 176.7 413.60 0.00 58.9
05/23/2020 07:00 3.36 176.7 413.59 0.00 55.3
05/23/2020 06:00 3.36 176.7 413.60 0.00 53.8
05/23/2020 05:00 3.37 180.0 413.60 0.00 54.7
05/23/2020 04:00 3.36 176.7 413.60 0.00 55.0
05/23/2020 03:00 3.36 176.7 413.61 0.00 56.2
05/23/2020 02:00 3.36 176.7 413.60 0.00 57.5
05/23/2020 01:00 3.37 180.0 413.61 0.00 59.9
05/23/2020 00:00 3.37 180.0 413.62 0.00 63.5
05/22/2020 23:00 3.37 180.0 413.62 0.00 66.7
05/22/2020 22:00 3.37 180.0 413.61 0.00 68.0
05/22/2020 21:00 3.36 176.7 413.61 0.00 72.5
05/22/2020 20:00 3.37 180.0 413.62 0.00 79.2
05/22/2020 19:00 3.37 180.0 413.63 0.00 84.1
05/22/2020 18:00 3.36 176.7 413.60 0.00 85.0
05/22/2020 17:00 3.38 183.3 413.63 0.00 84.0
05/22/2020 16:00 3.38 183.3 413.64 0.00 83.9
05/22/2020 15:00 3.37 180.0 413.59 0.00 82.3
05/22/2020 14:00 3.39 186.6 413.64 0.00 80.4
05/22/2020 13:00 3.39 186.6 413.64 0.00 77.9
05/22/2020 12:00 3.40 190.0 413.67 0.00 75.9
05/22/2020 11:00 3.40 190.0 413.64 0.00 73.3
05/22/2020 10:00 3.39 186.6 413.64 0.00 69.1
05/22/2020 09:00 3.39 186.6 413.65 0.00 63.6
05/22/2020 08:00 3.38 183.3 413.62 0.00 56.2
05/22/2020 07:00 3.39 186.6 413.65 0.00 49.6
05/22/2020 06:00 3.39 186.6 413.66 0.00 50.6
05/22/2020 05:00 3.39 186.6 413.66 0.00 52.0
05/22/2020 04:00 3.40 190.0 413.66 0.00 53.9
05/22/2020 03:00 3.40 190.0 413.67 0.00 54.1
05/22/2020 02:00 3.40 190.0 413.67 0.00 57.1
05/22/2020 01:00 3.40 190.0 413.68 0.00 63.8
05/22/2020 00:00 3.40 190.0 413.66 0.00 64.9
05/21/2020 23:00 3.41 193.4 413.68 0.00 64.0
05/21/2020 22:00 3.40 190.0 413.68 0.00 64.4
05/21/2020 21:00 3.40 190.0 413.68 0.00 68.7
05/21/2020 20:00 3.41 193.4 413.68 0.00 71.6
05/21/2020 19:00 3.40 190.0 413.67 0.00 76.9
05/21/2020 18:00 3.40 190.0 413.68 0.00 79.5
05/21/2020 17:00 3.41 193.4 413.66 0.00 79.5
05/21/2020 16:00 3.41 193.4 413.68 0.00 77.7
05/21/2020 15:00 3.41 193.4 413.70 0.00 76.4
05/21/2020 14:00 3.42 196.9 413.70 0.00 74.7
05/21/2020 13:00 3.42 196.9 413.64 0.00 72.2
05/21/2020 12:00 3.42 196.9 413.70 0.00 70.5
05/21/2020 11:00 3.42 196.9 413.69 0.00 66.9
05/21/2020 10:00 3.43 200.3 413.71 0.00 62.8
05/21/2020 09:00 3.42 196.9 413.70 0.00 54.2
05/21/2020 08:00 3.42 196.9 413.71 0.00 46.0
05/21/2020 07:00 3.42 196.9 413.71 0.00 41.1
05/21/2020 06:00 3.43 200.3 413.71 0.00 40.0
05/21/2020 05:00 3.43 200.3 413.71 0.00 41.1
05/21/2020 04:00 3.42 196.9 413.71 0.00 42.8
05/21/2020 03:00 3.43 200.3 413.72 0.00 43.7
05/21/2020 02:00 3.43 200.3 413.72 0.00 44.5
05/21/2020 01:00 3.42 196.9 413.72 0.00 45.7
05/21/2020 00:00 3.43 200.3 413.72 0.00 48.3
05/20/2020 23:00 3.43 200.3 413.72 0.00 50.6
05/20/2020 22:00 3.43 200.3 413.72 0.00 53.9
05/20/2020 21:00 3.42 196.9 413.71 0.00 57.5
05/20/2020 20:00 3.42 196.9 413.70 0.00 60.7
05/20/2020 19:00 3.42 196.9 413.71 0.00 63.3
05/20/2020 18:00 3.42 196.9 413.71 0.00 65.3
05/20/2020 17:00 3.42 196.9 413.72 0.00 66.0
05/20/2020 16:00 -- -- -- -- --
05/20/2020 15:00 -- -- -- -- --
05/20/2020 14:00 -- -- -- -- --
05/20/2020 13:00 -- -- -- -- --
05/20/2020 12:00 -- -- -- -- --
05/20/2020 11:00 -- -- -- -- --
05/20/2020 10:00 -- -- -- -- --
05/20/2020 09:00 -- -- -- -- --